sensor_id;sensor_type;location;lat;lon;timestamp;temperature;humidity
47616;DHT22;69146;52.266;7.000;2023-11-22T00:00:38;2.90;99.90
47616;DHT22;69146;52.266;7.000;2023-11-22T00:03:22;2.90;99.90
47616;DHT22;69146;52.266;7.000;2023-11-22T00:06:08;2.90;99.90
47616;DHT22;69146;52.266;7.000;2023-11-22T00:08:52;2.80;99.90
47616;DHT22;69146;52.266;7.000;2023-11-22T00:11:37;2.90;99.90
47616;DHT22;69146;52.266;7.000;2023-11-22T00:14:23;2.80;99.90
47616;DHT22;69146;52.266;7.000;2023-11-22T00:17:07;2.80;99.90
47616;DHT22;69146;52.266;7.000;2023-11-22T00:19:52;2.70;99.90
47616;DHT22;69146;52.266;7.000;2023-11-22T00:22:36;2.70;99.90
47616;DHT22;69146;52.266;7.000;2023-11-22T00:25:21;2.60;99.90
47616;DHT22;69146;52.266;7.000;2023-11-22T00:28:05;2.70;99.90
47616;DHT22;69146;52.266;7.000;2023-11-22T00:30:52;2.70;99.90
47616;DHT22;69146;52.266;7.000;2023-11-22T00:33:37;2.70;99.90
47616;DHT22;69146;52.266;7.000;2023-11-22T00:36:22;2.60;99.90
47616;DHT22;69146;52.266;7.000;2023-11-22T00:39:06;2.70;99.90
47616;DHT22;69146;52.266;7.000;2023-11-22T00:41:54;2.60;99.90
47616;DHT22;69146;52.266;7.000;2023-11-22T00:44:39;2.60;99.90
47616;DHT22;69146;52.266;7.000;2023-11-22T00:47:25;2.60;99.90
47616;DHT22;69146;52.266;7.000;2023-11-22T00:50:09;2.60;99.90
47616;DHT22;69146;52.266;7.000;2023-11-22T00:52:54;2.60;99.90
47616;DHT22;69146;52.266;7.000;2023-11-22T00:55:38;2.60;99.90
47616;DHT22;69146;52.266;7.000;2023-11-22T00:58:23;2.60;99.90
47616;DHT22;69146;52.266;7.000;2023-11-22T01:01:07;2.50;99.90
47616;DHT22;69146;52.266;7.000;2023-11-22T01:03:53;2.50;99.90
47616;DHT22;69146;52.266;7.000;2023-11-22T01:06:38;2.60;99.90
47616;DHT22;69146;52.266;7.000;2023-11-22T01:09:25;2.60;99.90
47616;DHT22;69146;52.266;7.000;2023-11-22T01:12:09;2.60;99.90
47616;DHT22;69146;52.266;7.000;2023-11-22T01:14:56;2.60;99.90
47616;DHT22;69146;52.266;7.000;2023-11-22T01:17:42;2.60;99.90
47616;DHT22;69146;52.266;7.000;2023-11-22T01:20:27;2.60;99.90
47616;DHT22;69146;52.266;7.000;2023-11-22T01:23:12;2.50;99.90
47616;DHT22;69146;52.266;7.000;2023-11-22T01:25:57;2.50;99.90
47616;DHT22;69146;52.266;7.000;2023-11-22T01:28:42;2.50;99.90
47616;DHT22;69146;52.266;7.000;2023-11-22T01:31:28;2.50;99.90
47616;DHT22;69146;52.266;7.000;2023-11-22T01:34:13;2.50;99.90
47616;DHT22;69146;52.266;7.000;2023-11-22T01:36:59;2.50;99.90
47616;DHT22;69146;52.266;7.000;2023-11-22T01:39:43;2.50;99.90
47616;DHT22;69146;52.266;7.000;2023-11-22T01:42:28;2.40;99.90
47616;DHT22;69146;52.266;7.000;2023-11-22T01:45:13;2.40;99.90
47616;DHT22;69146;52.266;7.000;2023-11-22T01:47:57;2.40;99.90
47616;DHT22;69146;52.266;7.000;2023-11-22T01:50:42;2.30;99.90
47616;DHT22;69146;52.266;7.000;2023-11-22T01:53:29;2.30;99.90
47616;DHT22;69146;52.266;7.000;2023-11-22T01:56:15;2.30;99.90
47616;DHT22;69146;52.266;7.000;2023-11-22T01:59:00;2.30;99.90
47616;DHT22;69146;52.266;7.000;2023-11-22T02:01:45;2.10;99.90
47616;DHT22;69146;52.266;7.000;2023-11-22T02:04:30;2.00;99.90
47616;DHT22;69146;52.266;7.000;2023-11-22T02:07:14;2.00;99.90
47616;DHT22;69146;52.266;7.000;2023-11-22T02:10:00;2.00;99.90
47616;DHT22;69146;52.266;7.000;2023-11-22T02:12:44;2.00;99.90
47616;DHT22;69146;52.266;7.000;2023-11-22T02:15:28;1.90;99.90
47616;DHT22;69146;52.266;7.000;2023-11-22T02:18:14;1.90;99.90
47616;DHT22;69146;52.266;7.000;2023-11-22T02:20:58;1.90;99.90
47616;DHT22;69146;52.266;7.000;2023-11-22T02:23:46;1.90;99.90
47616;DHT22;69146;52.266;7.000;2023-11-22T02:26:30;1.90;99.90
47616;DHT22;69146;52.266;7.000;2023-11-22T02:29:15;1.80;99.90
47616;DHT22;69146;52.266;7.000;2023-11-22T02:32:00;1.90;99.90
47616;DHT22;69146;52.266;7.000;2023-11-22T02:34:44;1.90;99.90
47616;DHT22;69146;52.266;7.000;2023-11-22T02:37:30;1.90;99.90
47616;DHT22;69146;52.266;7.000;2023-11-22T02:40:16;1.90;99.90
47616;DHT22;69146;52.266;7.000;2023-11-22T02:43:02;1.90;99.90
47616;DHT22;69146;52.266;7.000;2023-11-22T02:45:51;1.80;99.90
47616;DHT22;69146;52.266;7.000;2023-11-22T02:48:36;1.80;99.90
47616;DHT22;69146;52.266;7.000;2023-11-22T02:51:21;1.80;99.90
47616;DHT22;69146;52.266;7.000;2023-11-22T02:54:06;1.80;99.90
47616;DHT22;69146;52.266;7.000;2023-11-22T02:56:52;1.80;99.90
47616;DHT22;69146;52.266;7.000;2023-11-22T02:59:37;1.80;99.90
47616;DHT22;69146;52.266;7.000;2023-11-22T03:02:21;1.70;99.90
47616;DHT22;69146;52.266;7.000;2023-11-22T03:05:06;1.70;99.90
47616;DHT22;69146;52.266;7.000;2023-11-22T03:07:51;1.70;99.90
47616;DHT22;69146;52.266;7.000;2023-11-22T03:10:35;1.60;99.90
47616;DHT22;69146;52.266;7.000;2023-11-22T03:13:22;1.70;99.90
47616;DHT22;69146;52.266;7.000;2023-11-22T03:16:07;1.60;99.90
47616;DHT22;69146;52.266;7.000;2023-11-22T03:18:52;1.60;99.90
47616;DHT22;69146;52.266;7.000;2023-11-22T03:21:38;1.50;99.90
47616;DHT22;69146;52.266;7.000;2023-11-22T03:24:23;1.40;99.90
47616;DHT22;69146;52.266;7.000;2023-11-22T03:27:09;1.30;99.90
47616;DHT22;69146;52.266;7.000;2023-11-22T03:29:56;1.30;99.90
47616;DHT22;69146;52.266;7.000;2023-11-22T03:32:40;1.30;99.90
47616;DHT22;69146;52.266;7.000;2023-11-22T03:35:25;1.30;99.90
47616;DHT22;69146;52.266;7.000;2023-11-22T03:38:09;1.30;99.90
47616;DHT22;69146;52.266;7.000;2023-11-22T03:40:54;1.40;99.90
47616;DHT22;69146;52.266;7.000;2023-11-22T03:43:39;1.40;99.90
47616;DHT22;69146;52.266;7.000;2023-11-22T03:46:25;1.40;99.90
47616;DHT22;69146;52.266;7.000;2023-11-22T03:49:09;1.40;99.90
47616;DHT22;69146;52.266;7.000;2023-11-22T03:51:53;1.50;99.90
47616;DHT22;69146;52.266;7.000;2023-11-22T03:54:38;1.50;99.90
47616;DHT22;69146;52.266;7.000;2023-11-22T03:57:23;1.50;99.90
47616;DHT22;69146;52.266;7.000;2023-11-22T04:00:08;1.50;99.90
47616;DHT22;69146;52.266;7.000;2023-11-22T04:02:55;1.50;99.90
47616;DHT22;69146;52.266;7.000;2023-11-22T04:05:41;1.60;99.90
47616;DHT22;69146;52.266;7.000;2023-11-22T04:08:26;1.60;99.90
47616;DHT22;69146;52.266;7.000;2023-11-22T04:11:10;1.60;99.90
47616;DHT22;69146;52.266;7.000;2023-11-22T04:13:55;1.70;99.90
47616;DHT22;69146;52.266;7.000;2023-11-22T04:16:39;1.60;99.90
47616;DHT22;69146;52.266;7.000;2023-11-22T04:19:25;1.70;99.90
47616;DHT22;69146;52.266;7.000;2023-11-22T04:22:10;1.60;99.90
47616;DHT22;69146;52.266;7.000;2023-11-22T04:24:55;1.70;99.90
47616;DHT22;69146;52.266;7.000;2023-11-22T04:27:39;1.70;99.90
47616;DHT22;69146;52.266;7.000;2023-11-22T04:30:24;1.70;99.90
47616;DHT22;69146;52.266;7.000;2023-11-22T04:33:08;1.70;99.90
47616;DHT22;69146;52.266;7.000;2023-11-22T04:35:55;1.70;99.90
47616;DHT22;69146;52.266;7.000;2023-11-22T04:38:40;1.70;99.90
47616;DHT22;69146;52.266;7.000;2023-11-22T04:41:24;1.70;99.90
47616;DHT22;69146;52.266;7.000;2023-11-22T04:44:10;1.70;99.90
47616;DHT22;69146;52.266;7.000;2023-11-22T04:46:55;1.60;99.90
47616;DHT22;69146;52.266;7.000;2023-11-22T04:49:41;1.60;99.90
47616;DHT22;69146;52.266;7.000;2023-11-22T04:52:27;1.60;99.90
47616;DHT22;69146;52.266;7.000;2023-11-22T04:55:13;1.60;99.90
47616;DHT22;69146;52.266;7.000;2023-11-22T04:57:57;1.50;99.90
47616;DHT22;69146;52.266;7.000;2023-11-22T05:00:42;1.50;99.90
47616;DHT22;69146;52.266;7.000;2023-11-22T05:03:26;1.40;99.90
47616;DHT22;69146;52.266;7.000;2023-11-22T05:06:11;1.30;99.90
47616;DHT22;69146;52.266;7.000;2023-11-22T05:08:58;1.20;99.90
47616;DHT22;69146;52.266;7.000;2023-11-22T05:11:43;1.20;99.90
47616;DHT22;69146;52.266;7.000;2023-11-22T05:14:29;1.20;99.90
47616;DHT22;69146;52.266;7.000;2023-11-22T05:17:13;1.20;99.90
47616;DHT22;69146;52.266;7.000;2023-11-22T05:19:57;1.10;99.90
47616;DHT22;69146;52.266;7.000;2023-11-22T05:22:42;1.10;99.90
47616;DHT22;69146;52.266;7.000;2023-11-22T05:25:28;1.00;99.90
47616;DHT22;69146;52.266;7.000;2023-11-22T05:28:12;0.90;99.90
47616;DHT22;69146;52.266;7.000;2023-11-22T05:30:56;0.90;99.90
47616;DHT22;69146;52.266;7.000;2023-11-22T05:33:41;0.90;99.90
47616;DHT22;69146;52.266;7.000;2023-11-22T05:36:25;1.00;99.90
47616;DHT22;69146;52.266;7.000;2023-11-22T05:39:10;1.00;99.90
47616;DHT22;69146;52.266;7.000;2023-11-22T05:41:57;1.00;99.90
47616;DHT22;69146;52.266;7.000;2023-11-22T05:44:42;1.10;99.90
47616;DHT22;69146;52.266;7.000;2023-11-22T05:47:28;1.00;99.90
47616;DHT22;69146;52.266;7.000;2023-11-22T05:50:15;1.10;99.90
47616;DHT22;69146;52.266;7.000;2023-11-22T05:52:59;1.00;99.90
47616;DHT22;69146;52.266;7.000;2023-11-22T05:55:44;0.90;99.90
47616;DHT22;69146;52.266;7.000;2023-11-22T05:58:30;0.90;99.90
47616;DHT22;69146;52.266;7.000;2023-11-22T06:01:15;0.90;99.90
47616;DHT22;69146;52.266;7.000;2023-11-22T06:03:59;0.90;99.90
47616;DHT22;69146;52.266;7.000;2023-11-22T06:06:44;0.90;99.90
47616;DHT22;69146;52.266;7.000;2023-11-22T06:09:28;0.90;99.90
47616;DHT22;69146;52.266;7.000;2023-11-22T06:12:13;0.90;99.90
47616;DHT22;69146;52.266;7.000;2023-11-22T06:14:59;0.90;99.90
47616;DHT22;69146;52.266;7.000;2023-11-22T06:17:43;0.90;99.90
47616;DHT22;69146;52.266;7.000;2023-11-22T06:20:28;0.80;99.90
47616;DHT22;69146;52.266;7.000;2023-11-22T06:23:12;0.90;99.90
47616;DHT22;69146;52.266;7.000;2023-11-22T06:25:58;0.90;99.90
47616;DHT22;69146;52.266;7.000;2023-11-22T06:28:42;0.90;99.90
47616;DHT22;69146;52.266;7.000;2023-11-22T06:31:31;1.00;99.90
47616;DHT22;69146;52.266;7.000;2023-11-22T06:34:16;1.00;99.90
47616;DHT22;69146;52.266;7.000;2023-11-22T06:37:03;1.10;99.90
47616;DHT22;69146;52.266;7.000;2023-11-22T06:39:48;1.10;99.90
47616;DHT22;69146;52.266;7.000;2023-11-22T06:42:33;1.20;99.90
47616;DHT22;69146;52.266;7.000;2023-11-22T06:45:17;1.20;99.90
47616;DHT22;69146;52.266;7.000;2023-11-22T06:48:04;1.30;99.90
47616;DHT22;69146;52.266;7.000;2023-11-22T06:50:48;1.30;99.90
47616;DHT22;69146;52.266;7.000;2023-11-22T06:53:32;1.50;99.90
47616;DHT22;69146;52.266;7.000;2023-11-22T06:56:17;1.50;99.90
47616;DHT22;69146;52.266;7.000;2023-11-22T06:59:01;1.60;99.90
47616;DHT22;69146;52.266;7.000;2023-11-22T07:01:47;1.50;99.90
47616;DHT22;69146;52.266;7.000;2023-11-22T07:04:33;1.60;99.90
47616;DHT22;69146;52.266;7.000;2023-11-22T07:07:17;1.60;99.90
47616;DHT22;69146;52.266;7.000;2023-11-22T07:10:03;1.60;99.90
47616;DHT22;69146;52.266;7.000;2023-11-22T07:12:49;1.70;99.90
47616;DHT22;69146;52.266;7.000;2023-11-22T07:15:35;1.70;99.90
47616;DHT22;69146;52.266;7.000;2023-11-22T07:18:20;1.60;99.90
47616;DHT22;69146;52.266;7.000;2023-11-22T07:21:09;1.60;99.90
47616;DHT22;69146;52.266;7.000;2023-11-22T07:23:54;1.60;99.90
47616;DHT22;69146;52.266;7.000;2023-11-22T07:26:38;1.60;99.90
47616;DHT22;69146;52.266;7.000;2023-11-22T07:29:23;1.60;99.90
47616;DHT22;69146;52.266;7.000;2023-11-22T07:32:10;1.60;99.90
47616;DHT22;69146;52.266;7.000;2023-11-22T07:34:55;1.50;99.90
47616;DHT22;69146;52.266;7.000;2023-11-22T07:37:41;1.60;99.90
47616;DHT22;69146;52.266;7.000;2023-11-22T07:40:28;1.60;99.90
47616;DHT22;69146;52.266;7.000;2023-11-22T07:43:13;1.60;99.90
47616;DHT22;69146;52.266;7.000;2023-11-22T07:45:58;1.60;99.90
47616;DHT22;69146;52.266;7.000;2023-11-22T07:48:44;1.60;99.90
47616;DHT22;69146;52.266;7.000;2023-11-22T07:51:31;1.60;99.90
47616;DHT22;69146;52.266;7.000;2023-11-22T07:54:18;1.60;99.90
47616;DHT22;69146;52.266;7.000;2023-11-22T07:57:03;1.60;99.90
47616;DHT22;69146;52.266;7.000;2023-11-22T07:59:49;1.60;99.90
47616;DHT22;69146;52.266;7.000;2023-11-22T08:02:33;1.60;99.90
47616;DHT22;69146;52.266;7.000;2023-11-22T08:05:18;1.60;99.90
47616;DHT22;69146;52.266;7.000;2023-11-22T08:08:02;1.60;99.90
47616;DHT22;69146;52.266;7.000;2023-11-22T08:10:52;1.60;99.90
47616;DHT22;69146;52.266;7.000;2023-11-22T08:13:37;1.70;99.90
47616;DHT22;69146;52.266;7.000;2023-11-22T08:16:22;1.80;99.90
47616;DHT22;69146;52.266;7.000;2023-11-22T08:19:07;1.80;99.90
47616;DHT22;69146;52.266;7.000;2023-11-22T08:21:52;1.80;99.90
47616;DHT22;69146;52.266;7.000;2023-11-22T08:24:38;1.80;99.90
47616;DHT22;69146;52.266;7.000;2023-11-22T08:27:24;1.80;99.90
47616;DHT22;69146;52.266;7.000;2023-11-22T08:30:09;1.90;99.90
47616;DHT22;69146;52.266;7.000;2023-11-22T08:32:57;1.90;99.90
47616;DHT22;69146;52.266;7.000;2023-11-22T08:35:41;1.90;99.90
47616;DHT22;69146;52.266;7.000;2023-11-22T08:38:27;2.00;99.90
47616;DHT22;69146;52.266;7.000;2023-11-22T08:41:11;1.90;99.90
47616;DHT22;69146;52.266;7.000;2023-11-22T08:43:59;2.00;99.90
47616;DHT22;69146;52.266;7.000;2023-11-22T08:46:44;2.20;99.90
47616;DHT22;69146;52.266;7.000;2023-11-22T08:49:28;2.30;99.90
47616;DHT22;69146;52.266;7.000;2023-11-22T08:52:13;2.40;99.90
47616;DHT22;69146;52.266;7.000;2023-11-22T08:54:57;2.40;99.90
47616;DHT22;69146;52.266;7.000;2023-11-22T08:57:42;2.40;99.90
47616;DHT22;69146;52.266;7.000;2023-11-22T09:00:27;2.50;99.90
47616;DHT22;69146;52.266;7.000;2023-11-22T09:03:13;2.50;99.90
47616;DHT22;69146;52.266;7.000;2023-11-22T09:05:57;2.60;99.90
47616;DHT22;69146;52.266;7.000;2023-11-22T09:08:41;2.60;99.90
47616;DHT22;69146;52.266;7.000;2023-11-22T09:11:26;2.60;99.90
47616;DHT22;69146;52.266;7.000;2023-11-22T09:14:11;2.70;99.90
47616;DHT22;69146;52.266;7.000;2023-11-22T09:16:58;2.80;99.90
47616;DHT22;69146;52.266;7.000;2023-11-22T09:19:45;2.80;99.90
47616;DHT22;69146;52.266;7.000;2023-11-22T09:22:29;2.80;99.90
47616;DHT22;69146;52.266;7.000;2023-11-22T09:25:14;2.80;99.90
47616;DHT22;69146;52.266;7.000;2023-11-22T09:28:00;2.70;99.90
47616;DHT22;69146;52.266;7.000;2023-11-22T09:30:45;2.80;99.90
47616;DHT22;69146;52.266;7.000;2023-11-22T09:33:31;2.80;99.90
47616;DHT22;69146;52.266;7.000;2023-11-22T09:36:16;2.80;99.90
47616;DHT22;69146;52.266;7.000;2023-11-22T09:39:02;2.90;99.90
47616;DHT22;69146;52.266;7.000;2023-11-22T09:41:47;3.00;99.90
47616;DHT22;69146;52.266;7.000;2023-11-22T09:44:32;3.10;99.90
47616;DHT22;69146;52.266;7.000;2023-11-22T09:47:17;3.10;99.90
47616;DHT22;69146;52.266;7.000;2023-11-22T09:50:05;3.20;99.90
47616;DHT22;69146;52.266;7.000;2023-11-22T09:52:51;3.30;99.90
47616;DHT22;69146;52.266;7.000;2023-11-22T09:55:38;3.30;99.90
47616;DHT22;69146;52.266;7.000;2023-11-22T09:58:27;3.40;99.90
47616;DHT22;69146;52.266;7.000;2023-11-22T10:01:14;3.40;99.90
47616;DHT22;69146;52.266;7.000;2023-11-22T10:03:59;3.40;99.90
47616;DHT22;69146;52.266;7.000;2023-11-22T10:06:45;3.40;99.90
47616;DHT22;69146;52.266;7.000;2023-11-22T10:09:30;3.50;99.90
47616;DHT22;69146;52.266;7.000;2023-11-22T10:12:18;3.50;99.90
47616;DHT22;69146;52.266;7.000;2023-11-22T10:15:11;3.60;99.90
47616;DHT22;69146;52.266;7.000;2023-11-22T10:17:56;3.60;99.90
47616;DHT22;69146;52.266;7.000;2023-11-22T10:20:41;3.80;99.90
47616;DHT22;69146;52.266;7.000;2023-11-22T10:23:28;3.90;99.90
47616;DHT22;69146;52.266;7.000;2023-11-22T10:26:13;4.00;99.90
47616;DHT22;69146;52.266;7.000;2023-11-22T10:29:00;4.00;99.90
47616;DHT22;69146;52.266;7.000;2023-11-22T10:31:44;4.10;99.90
47616;DHT22;69146;52.266;7.000;2023-11-22T10:34:29;4.20;99.90
47616;DHT22;69146;52.266;7.000;2023-11-22T10:37:13;4.30;99.90
47616;DHT22;69146;52.266;7.000;2023-11-22T10:39:59;4.30;99.90
47616;DHT22;69146;52.266;7.000;2023-11-22T10:42:43;4.30;99.90
47616;DHT22;69146;52.266;7.000;2023-11-22T10:45:30;4.30;99.90
47616;DHT22;69146;52.266;7.000;2023-11-22T10:48:15;4.40;99.90
47616;DHT22;69146;52.266;7.000;2023-11-22T10:51:00;4.30;99.90
47616;DHT22;69146;52.266;7.000;2023-11-22T10:53:48;4.30;99.90
47616;DHT22;69146;52.266;7.000;2023-11-22T10:56:36;4.40;99.90
47616;DHT22;69146;52.266;7.000;2023-11-22T10:59:22;4.40;99.90
47616;DHT22;69146;52.266;7.000;2023-11-22T11:02:07;4.40;99.90
47616;DHT22;69146;52.266;7.000;2023-11-22T11:04:55;4.40;99.90
47616;DHT22;69146;52.266;7.000;2023-11-22T11:07:44;4.40;99.90
47616;DHT22;69146;52.266;7.000;2023-11-22T11:10:32;4.50;99.90
47616;DHT22;69146;52.266;7.000;2023-11-22T11:13:18;4.50;99.90
47616;DHT22;69146;52.266;7.000;2023-11-22T11:16:02;4.60;99.90
47616;DHT22;69146;52.266;7.000;2023-11-22T11:18:47;4.70;99.90
47616;DHT22;69146;52.266;7.000;2023-11-22T11:21:32;4.70;99.90
47616;DHT22;69146;52.266;7.000;2023-11-22T11:24:17;4.70;99.90
47616;DHT22;69146;52.266;7.000;2023-11-22T11:27:02;4.70;99.90
47616;DHT22;69146;52.266;7.000;2023-11-22T11:29:49;4.80;99.90
47616;DHT22;69146;52.266;7.000;2023-11-22T11:32:33;4.70;99.90
47616;DHT22;69146;52.266;7.000;2023-11-22T11:35:19;4.60;99.90
47616;DHT22;69146;52.266;7.000;2023-11-22T11:38:21;4.50;99.90
47616;DHT22;69146;52.266;7.000;2023-11-22T11:41:06;4.30;99.90
47616;DHT22;69146;52.266;7.000;2023-11-22T11:43:51;4.30;99.90
47616;DHT22;69146;52.266;7.000;2023-11-22T11:46:37;4.20;99.90
47616;DHT22;69146;52.266;7.000;2023-11-22T11:49:22;4.10;99.90
47616;DHT22;69146;52.266;7.000;2023-11-22T11:52:06;4.10;99.90
47616;DHT22;69146;52.266;7.000;2023-11-22T11:54:52;4.20;99.90
47616;DHT22;69146;52.266;7.000;2023-11-22T11:57:36;4.30;99.90
47616;DHT22;69146;52.266;7.000;2023-11-22T12:00:21;4.30;99.90
47616;DHT22;69146;52.266;7.000;2023-11-22T12:03:09;4.40;99.90
47616;DHT22;69146;52.266;7.000;2023-11-22T12:05:54;4.40;99.90
47616;DHT22;69146;52.266;7.000;2023-11-22T12:08:38;4.50;99.90
47616;DHT22;69146;52.266;7.000;2023-11-22T12:11:23;4.50;99.90
47616;DHT22;69146;52.266;7.000;2023-11-22T12:14:08;4.60;99.90
47616;DHT22;69146;52.266;7.000;2023-11-22T12:16:52;4.70;99.90
47616;DHT22;69146;52.266;7.000;2023-11-22T12:19:40;4.70;99.90
47616;DHT22;69146;52.266;7.000;2023-11-22T12:22:24;4.70;99.90
47616;DHT22;69146;52.266;7.000;2023-11-22T12:25:10;4.80;99.90
47616;DHT22;69146;52.266;7.000;2023-11-22T12:27:55;4.80;99.90
47616;DHT22;69146;52.266;7.000;2023-11-22T12:30:39;4.90;99.90
47616;DHT22;69146;52.266;7.000;2023-11-22T12:33:26;4.90;99.90
47616;DHT22;69146;52.266;7.000;2023-11-22T12:36:12;5.00;99.90
47616;DHT22;69146;52.266;7.000;2023-11-22T12:39:01;5.00;99.90
47616;DHT22;69146;52.266;7.000;2023-11-22T12:41:48;5.00;99.90
47616;DHT22;69146;52.266;7.000;2023-11-22T12:44:46;5.10;99.90
47616;DHT22;69146;52.266;7.000;2023-11-22T12:47:33;5.10;99.90
47616;DHT22;69146;52.266;7.000;2023-11-22T12:50:30;5.20;99.90
47616;DHT22;69146;52.266;7.000;2023-11-22T12:53:17;5.20;99.90
47616;DHT22;69146;52.266;7.000;2023-11-22T12:56:02;5.20;99.90
47616;DHT22;69146;52.266;7.000;2023-11-22T12:58:46;5.20;99.90
47616;DHT22;69146;52.266;7.000;2023-11-22T13:01:32;5.20;99.90
47616;DHT22;69146;52.266;7.000;2023-11-22T13:04:19;5.20;99.90
47616;DHT22;69146;52.266;7.000;2023-11-22T13:07:03;5.20;99.90
47616;DHT22;69146;52.266;7.000;2023-11-22T13:09:49;5.30;99.90
47616;DHT22;69146;52.266;7.000;2023-11-22T13:12:33;5.30;99.90
47616;DHT22;69146;52.266;7.000;2023-11-22T13:15:19;5.40;99.90
47616;DHT22;69146;52.266;7.000;2023-11-22T13:18:05;5.50;99.90
47616;DHT22;69146;52.266;7.000;2023-11-22T13:20:50;5.60;99.90
47616;DHT22;69146;52.266;7.000;2023-11-22T13:23:35;5.60;99.90
47616;DHT22;69146;52.266;7.000;2023-11-22T13:26:20;5.60;99.90
47616;DHT22;69146;52.266;7.000;2023-11-22T13:29:05;5.50;99.90
47616;DHT22;69146;52.266;7.000;2023-11-22T13:31:50;5.50;99.90
47616;DHT22;69146;52.266;7.000;2023-11-22T13:34:35;5.50;99.90
47616;DHT22;69146;52.266;7.000;2023-11-22T13:37:22;5.40;99.90
47616;DHT22;69146;52.266;7.000;2023-11-22T13:40:07;5.40;99.90
47616;DHT22;69146;52.266;7.000;2023-11-22T13:42:57;5.40;99.90
47616;DHT22;69146;52.266;7.000;2023-11-22T13:45:42;5.50;99.90
47616;DHT22;69146;52.266;7.000;2023-11-22T13:48:27;5.40;99.90
47616;DHT22;69146;52.266;7.000;2023-11-22T13:51:11;5.40;99.90
47616;DHT22;69146;52.266;7.000;2023-11-22T13:53:55;5.40;99.90
47616;DHT22;69146;52.266;7.000;2023-11-22T13:56:40;5.40;99.90
47616;DHT22;69146;52.266;7.000;2023-11-22T13:59:25;5.40;99.90
47616;DHT22;69146;52.266;7.000;2023-11-22T14:02:10;5.30;99.90
47616;DHT22;69146;52.266;7.000;2023-11-22T14:04:54;5.30;99.90
47616;DHT22;69146;52.266;7.000;2023-11-22T14:07:39;5.30;99.90
47616;DHT22;69146;52.266;7.000;2023-11-22T14:10:23;5.30;99.90
47616;DHT22;69146;52.266;7.000;2023-11-22T14:13:08;5.30;99.90
47616;DHT22;69146;52.266;7.000;2023-11-22T14:15:53;5.40;99.90
47616;DHT22;69146;52.266;7.000;2023-11-22T14:18:38;5.30;99.90
47616;DHT22;69146;52.266;7.000;2023-11-22T14:21:22;5.30;99.90
47616;DHT22;69146;52.266;7.000;2023-11-22T14:24:09;5.30;99.90
47616;DHT22;69146;52.266;7.000;2023-11-22T14:26:53;5.30;99.90
47616;DHT22;69146;52.266;7.000;2023-11-22T14:29:38;5.30;99.90
47616;DHT22;69146;52.266;7.000;2023-11-22T14:32:24;5.30;99.90
47616;DHT22;69146;52.266;7.000;2023-11-22T14:35:08;5.30;99.90
47616;DHT22;69146;52.266;7.000;2023-11-22T14:37:53;5.30;99.90
47616;DHT22;69146;52.266;7.000;2023-11-22T14:40:38;5.30;99.90
47616;DHT22;69146;52.266;7.000;2023-11-22T14:43:24;5.30;99.90
47616;DHT22;69146;52.266;7.000;2023-11-22T14:46:08;5.30;99.90
47616;DHT22;69146;52.266;7.000;2023-11-22T14:48:54;5.30;99.90
47616;DHT22;69146;52.266;7.000;2023-11-22T14:51:39;5.30;99.90
47616;DHT22;69146;52.266;7.000;2023-11-22T14:54:24;5.20;99.90
47616;DHT22;69146;52.266;7.000;2023-11-22T14:57:08;5.30;99.90
47616;DHT22;69146;52.266;7.000;2023-11-22T14:59:54;5.30;99.90
47616;DHT22;69146;52.266;7.000;2023-11-22T15:02:41;5.30;99.90
47616;DHT22;69146;52.266;7.000;2023-11-22T15:05:32;5.20;99.90
47616;DHT22;69146;52.266;7.000;2023-11-22T15:08:17;5.20;99.90
47616;DHT22;69146;52.266;7.000;2023-11-22T15:11:01;5.20;99.90
47616;DHT22;69146;52.266;7.000;2023-11-22T15:13:45;5.20;99.90
47616;DHT22;69146;52.266;7.000;2023-11-22T15:16:32;5.10;99.90
47616;DHT22;69146;52.266;7.000;2023-11-22T15:19:16;5.10;99.90
47616;DHT22;69146;52.266;7.000;2023-11-22T15:22:04;5.10;99.90
47616;DHT22;69146;52.266;7.000;2023-11-22T15:24:50;5.10;99.90
47616;DHT22;69146;52.266;7.000;2023-11-22T15:27:34;5.10;99.90
47616;DHT22;69146;52.266;7.000;2023-11-22T15:30:18;5.00;99.90
47616;DHT22;69146;52.266;7.000;2023-11-22T15:33:03;5.00;99.90
47616;DHT22;69146;52.266;7.000;2023-11-22T15:35:49;5.00;99.90
47616;DHT22;69146;52.266;7.000;2023-11-22T15:38:35;4.90;99.90
47616;DHT22;69146;52.266;7.000;2023-11-22T15:41:22;4.80;99.90
47616;DHT22;69146;52.266;7.000;2023-11-22T15:44:06;4.80;99.90
47616;DHT22;69146;52.266;7.000;2023-11-22T15:46:51;4.80;99.90
47616;DHT22;69146;52.266;7.000;2023-11-22T15:49:35;4.70;99.90
47616;DHT22;69146;52.266;7.000;2023-11-22T15:52:19;4.70;99.90
47616;DHT22;69146;52.266;7.000;2023-11-22T15:55:06;4.70;99.90
47616;DHT22;69146;52.266;7.000;2023-11-22T15:57:51;4.80;99.90
47616;DHT22;69146;52.266;7.000;2023-11-22T16:00:36;4.80;99.90
47616;DHT22;69146;52.266;7.000;2023-11-22T16:03:20;4.80;99.90
47616;DHT22;69146;52.266;7.000;2023-11-22T16:06:05;4.80;99.90
47616;DHT22;69146;52.266;7.000;2023-11-22T16:08:50;4.90;99.90
47616;DHT22;69146;52.266;7.000;2023-11-22T16:11:36;4.90;99.90
47616;DHT22;69146;52.266;7.000;2023-11-22T16:14:20;5.00;99.90
47616;DHT22;69146;52.266;7.000;2023-11-22T16:17:05;5.00;99.90
47616;DHT22;69146;52.266;7.000;2023-11-22T16:19:49;5.00;99.90
47616;DHT22;69146;52.266;7.000;2023-11-22T16:22:34;5.00;99.90
47616;DHT22;69146;52.266;7.000;2023-11-22T16:25:19;5.00;99.90
47616;DHT22;69146;52.266;7.000;2023-11-22T16:28:08;5.10;99.90
47616;DHT22;69146;52.266;7.000;2023-11-22T16:30:53;5.20;99.90
47616;DHT22;69146;52.266;7.000;2023-11-22T16:33:38;5.10;99.90
47616;DHT22;69146;52.266;7.000;2023-11-22T16:36:22;5.10;99.90
47616;DHT22;69146;52.266;7.000;2023-11-22T16:39:08;5.10;99.90
47616;DHT22;69146;52.266;7.000;2023-11-22T16:41:53;5.10;99.90
47616;DHT22;69146;52.266;7.000;2023-11-22T16:44:39;5.10;99.90
47616;DHT22;69146;52.266;7.000;2023-11-22T16:47:28;5.10;99.90
47616;DHT22;69146;52.266;7.000;2023-11-22T16:50:13;5.10;99.90
47616;DHT22;69146;52.266;7.000;2023-11-22T16:52:57;5.20;99.90
47616;DHT22;69146;52.266;7.000;2023-11-22T16:55:42;5.20;99.90
47616;DHT22;69146;52.266;7.000;2023-11-22T16:58:27;5.20;99.90
47616;DHT22;69146;52.266;7.000;2023-11-22T17:01:12;5.20;99.90
47616;DHT22;69146;52.266;7.000;2023-11-22T17:03:57;5.20;99.90
47616;DHT22;69146;52.266;7.000;2023-11-22T17:06:42;5.20;99.90
47616;DHT22;69146;52.266;7.000;2023-11-22T17:09:27;5.20;99.90
47616;DHT22;69146;52.266;7.000;2023-11-22T17:12:11;5.30;99.90
47616;DHT22;69146;52.266;7.000;2023-11-22T17:14:56;5.30;99.90
47616;DHT22;69146;52.266;7.000;2023-11-22T17:17:41;5.30;99.90
47616;DHT22;69146;52.266;7.000;2023-11-22T17:20:28;5.30;99.90
47616;DHT22;69146;52.266;7.000;2023-11-22T17:23:12;5.20;99.90
47616;DHT22;69146;52.266;7.000;2023-11-22T17:25:56;5.30;99.90
47616;DHT22;69146;52.266;7.000;2023-11-22T17:28:41;5.20;99.90
47616;DHT22;69146;52.266;7.000;2023-11-22T17:31:25;5.10;99.90
47616;DHT22;69146;52.266;7.000;2023-11-22T17:34:12;5.20;99.90
47616;DHT22;69146;52.266;7.000;2023-11-22T17:36:56;5.20;99.90
47616;DHT22;69146;52.266;7.000;2023-11-22T17:39:43;5.20;99.90